Time,TemperatureF,DewpointF,PressureIn,WindDirection,WindDirectionDegrees,WindSpeedMPH,WindSpeedGustMPH,Humidity,HourlyPrecipIn,Conditions,Clouds,dailyrainin,SolarRadiationWatts/m^2,SoftwareType,DateUTC
2013-04-10 00:03:00,50.2,46.5,29.91,East,88,2.0,6.0,87,0.00,,,0.00,0,Wunderground v.1.15,2013-04-10 04:03:00,
2013-04-10 00:08:00,50.2,46.5,29.90,East,88,2.0,6.0,87,0.00,,,0.00,0,Wunderground v.1.15,2013-04-10 04:08:00,
2013-04-10 00:13:00,50.1,46.4,29.90,East,88,2.0,6.0,87,0.00,,,0.00,0,Wunderground v.1.15,2013-04-10 04:13:00,
2013-04-10 00:23:00,50.0,46.6,29.90,East,88,2.0,5.0,88,0.00,,,0.00,0,Wunderground v.1.15,2013-04-10 04:23:00,
2013-04-10 00:28:00,49.9,46.5,29.90,East,88,1.0,5.0,88,0.00,,,0.00,0,Wunderground v.1.15,2013-04-10 04:28:00,
2013-04-10 00:38:00,49.7,46.3,29.90,East,88,1.0,1.0,88,0.00,,,0.00,0,Wunderground v.1.15,2013-04-10 04:38:00,
2013-04-10 00:48:00,49.2,45.8,29.91,East,88,1.0,5.0,88,0.00,,,0.00,0,Wunderground v.1.15,2013-04-10 04:48:00,
2013-04-10 00:58:00,49.0,45.6,29.91,East,88,2.0,2.0,88,0.00,,,0.00,0,Wunderground v.1.15,2013-04-10 04:58:00,
2013-04-10 01:03:00,49.0,45.6,29.90,East,88,2.0,3.0,88,0.00,,,0.00,0,Wunderground v.1.15,2013-04-10 05:03:00,
2013-04-10 01:13:00,49.1,46.0,29.89,East,82,4.0,6.0,89,0.00,,,0.00,0,Wunderground v.1.15,2013-04-10 05:13:00,
2013-04-10 01:23:00,49.2,46.1,29.89,East,82,3.0,5.0,89,0.00,,,0.00,0,Wunderground v.1.15,2013-04-10 05:23:00,
2013-04-10 01:33:00,49.2,46.1,29.88,ENE,78,4.0,4.0,89,0.00,,,0.00,0,Wunderground v.1.15,2013-04-10 05:33:00,
2013-04-10 01:43:00,49.2,46.1,29.88,ENE,71,4.0,7.0,89,0.00,,,0.00,0,Wunderground v.1.15,2013-04-10 05:43:00,
2013-04-10 01:53:00,49.1,46.0,29.87,East,79,6.0,9.0,89,0.00,,,0.00,0,Wunderground v.1.15,2013-04-10 05:53:00,
2013-04-10 02:03:00,49.2,46.1,29.87,East,84,6.0,8.0,89,0.00,,,0.00,0,Wunderground v.1.15,2013-04-10 06:03:00,
2013-04-10 02:08:00,49.2,46.1,29.87,ENE,65,6.0,6.0,89,0.00,,,0.00,0,Wunderground v.1.15,2013-04-10 06:08:00,
2013-04-10 02:18:00,49.5,46.4,29.87,ENE,61,2.0,9.0,89,0.00,,,0.00,0,Wunderground v.1.15,2013-04-10 06:18:00,
2013-04-10 02:28:00,49.7,46.6,29.86,East,87,3.0,10.0,89,0.00,,,0.00,0,Wunderground v.1.15,2013-04-10 06:28:00,
2013-04-10 02:33:00,49.8,46.7,29.85,East,90,4.0,10.0,89,0.00,,,0.00,0,Wunderground v.1.15,2013-04-10 06:33:00,
2013-04-10 02:43:00,49.7,46.6,29.84,East,90,3.0,10.0,89,0.00,,,0.00,0,Wunderground v.1.15,2013-04-10 06:43:00,
2013-04-10 02:53:00,49.6,46.5,29.83,East,90,4.0,10.0,89,0.00,,,0.00,0,Wunderground v.1.15,2013-04-10 06:53:00,
2013-04-10 03:03:00,49.5,46.4,29.83,East,91,4.0,4.0,89,0.00,,,0.00,0,Wunderground v.1.15,2013-04-10 07:03:00,
2013-04-10 03:13:00,49.2,46.1,29.82,East,90,3.0,8.0,89,0.00,,,0.00,0,Wunderground v.1.15,2013-04-10 07:13:00,
2013-04-10 03:23:00,48.9,45.8,29.82,East,90,2.0,8.0,89,0.00,,,0.00,0,Wunderground v.1.15,2013-04-10 07:23:00,
2013-04-10 03:33:00,49.2,46.4,29.82,East,90,2.0,7.0,90,0.00,,,0.00,0,Wunderground v.1.15,2013-04-10 07:33:00,
2013-04-10 03:43:00,49.7,46.6,29.81,East,101,3.0,7.0,89,0.00,,,0.00,0,Wunderground v.1.15,2013-04-10 07:43:00,
2013-04-10 03:53:00,50.6,47.5,29.81,SE,138,2.0,3.0,89,0.00,,,0.00,0,Wunderground v.1.15,2013-04-10 07:53:00,
2013-04-10 03:58:00,51.6,48.5,29.83,WNW,288,4.0,14.0,89,0.00,,,0.00,0,Wunderground v.1.15,2013-04-10 07:58:00,
2013-04-10 04:08:00,54.7,50.9,29.88,NNE,17,9.0,9.0,87,0.00,,,0.00,0,Wunderground v.1.15,2013-04-10 08:08:00,
2013-04-10 04:18:00,56.0,49.9,29.85,NE,46,6.0,6.0,80,0.00,,,0.00,0,Wunderground v.1.15,2013-04-10 08:18:00,
2013-04-10 04:28:00,54.0,47.3,29.85,NNE,31,8.0,22.0,78,0.00,,,0.00,0,Wunderground v.1.15,2013-04-10 08:28:00,
2013-04-10 04:38:00,52.6,46.3,29.86,NE,36,6.0,6.0,79,0.00,,,0.00,0,Wunderground v.1.15,2013-04-10 08:38:00,
2013-04-10 04:48:00,52.0,46.0,29.85,NNE,14,5.0,5.0,80,0.00,,,0.00,0,Wunderground v.1.15,2013-04-10 08:48:00,
2013-04-10 04:53:00,51.8,45.8,29.85,NE,55,5.0,16.0,80,0.00,,,0.00,0,Wunderground v.1.15,2013-04-10 08:53:00,
2013-04-10 05:03:00,51.5,45.9,29.85,NNE,15,4.0,7.0,81,0.00,,,0.00,0,Wunderground v.1.15,2013-04-10 09:03:00,
2013-04-10 05:13:00,51.3,45.7,29.85,NE,49,4.0,16.0,81,0.00,,,0.00,0,Wunderground v.1.15,2013-04-10 09:13:00,
2013-04-10 05:23:00,51.1,45.8,29.85,NNE,33,3.0,16.0,82,0.00,,,0.00,0,Wunderground v.1.15,2013-04-10 09:23:00,
2013-04-10 05:33:00,50.8,45.8,29.85,NE,49,3.0,11.0,83,0.00,,,0.00,0,Wunderground v.1.15,2013-04-10 09:33:00,
2013-04-10 05:43:00,50.6,45.6,29.86,NNE,28,2.0,11.0,83,0.00,,,0.00,0,Wunderground v.1.15,2013-04-10 09:43:00,
2013-04-10 05:53:00,50.0,45.4,29.87,ENE,62,3.0,11.0,84,0.00,,,0.00,0,Wunderground v.1.15,2013-04-10 09:53:00,
2013-04-10 06:03:00,48.9,44.9,29.87,East,88,3.0,5.0,86,0.00,,,0.00,0,Wunderground v.1.15,2013-04-10 10:03:00,
2013-04-10 06:13:00,48.3,44.6,29.88,ENE,71,5.0,8.0,87,0.00,,,0.00,0,Wunderground v.1.15,2013-04-10 10:13:00,
2013-04-10 06:18:00,48.0,44.6,29.88,ENE,69,3.0,3.0,88,0.00,,,0.00,0,Wunderground v.1.15,2013-04-10 10:18:00,
2013-04-10 06:28:00,47.7,44.6,29.88,NE,51,2.0,10.0,89,0.00,,,0.00,7,Wunderground v.1.15,2013-04-10 10:28:00,
2013-04-10 06:33:00,47.7,44.6,29.88,East,88,3.0,10.0,89,0.00,,,0.00,12,Wunderground v.1.15,2013-04-10 10:33:00,
2013-04-10 06:43:00,47.6,44.5,29.89,NNE,24,3.0,10.0,89,0.00,,,0.00,26,Wunderground v.1.15,2013-04-10 10:43:00,
2013-04-10 06:53:00,47.9,44.8,29.90,NNE,25,1.0,7.0,89,0.00,,,0.00,39,Wunderground v.1.15,2013-04-10 10:53:00,
2013-04-10 06:58:00,48.1,45.0,29.90,NNE,25,1.0,7.0,89,0.00,,,0.00,53,Wunderground v.1.15,2013-04-10 10:58:00,
2013-04-10 07:08:00,48.6,45.5,29.89,NNE,25,1.0,7.0,89,0.00,,,0.00,77,Wunderground v.1.15,2013-04-10 11:08:00,
2013-04-10 10:22:00,59.0,48.8,29.93,North,9,5.0,11.0,69,0.00,,,0.00,657,Wunderground v.1.15,2013-04-10 14:22:00,
2013-04-10 10:32:00,59.5,49.3,29.92,NNW,342,5.0,11.0,69,0.00,,,0.00,671,Wunderground v.1.15,2013-04-10 14:32:00,
2013-04-10 10:47:00,61.4,50.3,29.92,NNE,26,3.0,11.0,67,0.00,,,0.00,729,Wunderground v.1.15,2013-04-10 14:47:00,
2013-04-10 10:57:00,62.3,50.4,29.92,WNW,286,3.0,13.0,65,0.00,,,0.00,731,Wunderground v.1.15,2013-04-10 14:57:00,
2013-04-10 11:07:00,63.1,51.1,29.92,West,266,4.0,4.0,65,0.00,,,0.00,773,Wunderground v.1.15,2013-04-10 15:07:00,
2013-04-10 11:17:00,64.3,51.9,29.92,NW,323,3.0,13.0,64,0.00,,,0.00,772,Wunderground v.1.15,2013-04-10 15:17:00,
2013-04-10 11:27:00,63.5,51.5,29.92,North,355,4.0,8.0,65,0.00,,,0.00,802,Wunderground v.1.15,2013-04-10 15:27:00,
2013-04-10 11:32:00,62.9,49.2,29.93,SE,142,4.0,8.0,61,0.00,,,0.00,798,Wunderground v.1.15,2013-04-10 15:32:00,
2013-04-10 11:42:00,61.5,51.2,29.93,SSE,159,2.0,8.0,69,0.00,,,0.00,817,Wunderground v.1.15,2013-04-10 15:42:00,
2013-04-10 11:52:00,61.1,51.2,29.93,SE,140,3.0,9.0,70,0.00,,,0.00,817,Wunderground v.1.15,2013-04-10 15:52:00,
2013-04-10 12:02:00,63.6,51.6,29.92,West,269,2.0,9.0,65,0.00,,,0.00,835,Wunderground v.1.15,2013-04-10 16:02:00,
2013-04-10 12:12:00,66.9,53.0,29.92,NW,317,5.0,9.0,61,0.00,,,0.00,853,Wunderground v.1.15,2013-04-10 16:12:00,
2013-04-10 12:22:00,66.9,53.0,29.92,NW,318,7.0,13.0,61,0.00,,,0.00,867,Wunderground v.1.15,2013-04-10 16:22:00,
2013-04-10 12:32:00,66.2,52.3,29.92,NW,315,7.0,11.0,61,0.00,,,0.00,805,Wunderground v.1.15,2013-04-10 16:32:00,
2013-04-10 12:42:00,66.5,52.6,29.92,NW,325,7.0,13.0,61,0.00,,,0.00,846,Wunderground v.1.15,2013-04-10 16:42:00,
2013-04-10 12:52:00,67.3,53.4,29.92,North,355,5.0,14.0,61,0.00,,,0.00,744,Wunderground v.1.15,2013-04-10 16:52:00,
2013-04-10 12:57:00,67.0,52.2,29.92,NNW,346,6.0,14.0,59,0.00,,,0.00,694,Wunderground v.1.15,2013-04-10 16:57:00,
2013-04-10 13:07:00,67.7,52.4,29.92,North,360,5.0,14.0,58,0.00,,,0.00,835,Wunderground v.1.15,2013-04-10 17:07:00,
2013-04-10 13:17:00,67.1,52.3,29.92,NW,323,5.0,5.0,59,0.00,,,0.00,680,Wunderground v.1.15,2013-04-10 17:17:00,
2013-04-10 13:22:00,67.2,52.4,29.92,ENE,58,5.0,10.0,59,0.00,,,0.00,795,Wunderground v.1.15,2013-04-10 17:22:00,
2013-04-10 13:32:00,67.3,52.9,29.92,WNW,296,5.0,8.0,60,0.00,,,0.00,840,Wunderground v.1.15,2013-04-10 17:32:00,
2013-04-10 13:37:00,67.6,52.3,29.92,NW,311,5.0,12.0,58,0.00,,,0.00,840,Wunderground v.1.15,2013-04-10 17:37:00,
2013-04-10 13:47:00,67.9,52.6,29.92,NW,316,5.0,12.0,58,0.00,,,0.00,831,Wunderground v.1.15,2013-04-10 17:47:00,
2013-04-10 13:57:00,64.1,49.9,29.92,SE,126,5.0,11.0,60,0.00,,,0.00,802,Wunderground v.1.15,2013-04-10 17:57:00,
2013-04-10 14:02:00,58.0,47.9,29.92,SE,134,6.0,11.0,69,0.00,,,0.00,798,Wunderground v.1.15,2013-04-10 18:02:00,
2013-04-10 14:12:00,58.6,50.0,29.91,ESE,111,7.0,8.0,73,0.00,,,0.00,784,Wunderground v.1.15,2013-04-10 18:12:00,
2013-04-10 14:22:00,57.5,48.5,29.91,ESE,109,6.0,13.0,72,0.00,,,0.00,779,Wunderground v.1.15,2013-04-10 18:22:00,
2013-04-10 14:27:00,56.7,48.1,29.92,ESE,107,6.0,6.0,73,0.00,,,0.00,770,Wunderground v.1.15,2013-04-10 18:27:00,
2013-04-10 14:37:00,58.0,48.3,29.91,East,98,7.0,13.0,70,0.00,,,0.00,749,Wunderground v.1.15,2013-04-10 18:37:00,
2013-04-10 14:47:00,54.9,47.5,29.91,East,96,7.0,13.0,76,0.00,,,0.00,728,Wunderground v.1.15,2013-04-10 18:47:00,
2013-04-10 14:57:00,56.9,48.3,29.91,East,88,5.0,5.0,73,0.00,,,0.00,712,Wunderground v.1.15,2013-04-10 18:57:00,
2013-04-10 15:07:00,56.9,47.6,29.91,SE,128,5.0,13.0,71,0.00,,,0.00,682,Wunderground v.1.15,2013-04-10 19:07:00,
2013-04-10 15:12:00,54.9,46.8,29.92,SSE,150,7.0,13.0,74,0.00,,,0.00,687,Wunderground v.1.15,2013-04-10 19:12:00,
2013-04-10 15:22:00,54.4,46.6,29.92,ESE,107,5.0,12.0,75,0.00,,,0.00,638,Wunderground v.1.15,2013-04-10 19:22:00,
2013-04-10 15:32:00,53.7,47.3,29.92,East,92,6.0,12.0,79,0.00,,,0.00,638,Wunderground v.1.15,2013-04-10 19:32:00,
2013-04-10 15:37:00,55.3,47.5,29.91,ESE,105,5.0,5.0,75,0.00,,,0.00,624,Wunderground v.1.15,2013-04-10 19:37:00,
2013-04-10 15:47:00,53.0,46.3,29.90,ESE,118,6.0,6.0,78,0.00,,,0.00,592,Wunderground v.1.15,2013-04-10 19:47:00,
2013-04-10 15:57:00,51.9,46.3,29.90,SE,124,7.0,7.0,81,0.00,,,0.00,559,Wunderground v.1.15,2013-04-10 19:57:00,
2013-04-10 16:02:00,53.6,47.2,29.89,East,92,5.0,13.0,79,0.00,,,0.00,538,Wunderground v.1.15,2013-04-10 20:02:00,
2013-04-10 16:12:00,54.7,47.6,29.89,East,79,5.0,13.0,77,0.00,,,0.00,513,Wunderground v.1.15,2013-04-10 20:12:00,
2013-04-10 16:17:00,55.4,48.0,29.89,East,96,5.0,13.0,76,0.00,,,0.00,471,Wunderground v.1.15,2013-04-10 20:17:00,
2013-04-10 16:32:00,53.3,47.0,29.89,ESE,103,7.0,12.0,79,0.00,,,0.00,476,Wunderground v.1.15,2013-04-10 20:32:00,
2013-04-10 16:37:00,53.5,46.8,29.88,East,91,6.0,12.0,78,0.00,,,0.00,448,Wunderground v.1.15,2013-04-10 20:37:00,
2013-04-10 16:47:00,52.2,46.2,29.90,East,99,8.0,8.0,80,0.00,,,0.00,403,Wunderground v.1.15,2013-04-10 20:47:00,
2013-04-10 16:57:00,52.0,45.7,29.90,ENE,67,6.0,12.0,79,0.00,,,0.00,385,Wunderground v.1.15,2013-04-10 20:57:00,
2013-04-10 17:07:00,51.1,45.8,29.89,ESE,122,7.0,12.0,82,0.00,,,0.00,367,Wunderground v.1.15,2013-04-10 21:07:00,
2013-04-10 17:17:00,50.6,45.6,29.89,East,83,7.0,7.0,83,0.00,,,0.00,232,Wunderground v.1.15,2013-04-10 21:17:00,
2013-04-10 17:27:00,50.6,46.3,29.87,ESE,105,7.0,14.0,85,0.00,,,0.00,253,Wunderground v.1.15,2013-04-10 21:27:00,
2013-04-10 17:32:00,50.6,45.9,29.88,ESE,109,7.0,14.0,84,0.00,,,0.00,283,Wunderground v.1.15,2013-04-10 21:32:00,
2013-04-10 17:42:00,51.5,46.8,29.88,East,87,6.0,14.0,84,0.00,,,0.00,244,Wunderground v.1.15,2013-04-10 21:42:00,
2013-04-10 17:57:00,50.3,45.3,29.88,East,98,6.0,14.0,83,0.00,,,0.00,137,Wunderground v.1.15,2013-04-10 21:57:00,
2013-04-10 18:07:00,49.5,45.5,29.86,ESE,109,6.0,6.0,86,0.00,,,0.00,102,Wunderground v.1.15,2013-04-10 22:07:00,
2013-04-10 18:17:00,49.2,45.2,29.86,East,84,7.0,14.0,86,0.00,,,0.00,72,Wunderground v.1.15,2013-04-10 22:17:00,
2013-04-10 18:27:00,48.9,45.2,29.85,East,90,6.0,15.0,87,0.00,,,0.00,60,Wunderground v.1.15,2013-04-10 22:27:00,
2013-04-10 18:32:00,48.8,45.1,29.85,ESE,103,7.0,15.0,87,0.00,,,0.00,54,Wunderground v.1.15,2013-04-10 22:32:00,
2013-04-10 18:42:00,48.6,45.2,29.85,East,98,7.0,15.0,88,0.00,,,0.00,42,Wunderground v.1.15,2013-04-10 22:42:00,
2013-04-10 18:52:00,48.6,45.2,29.85,East,100,5.0,15.0,88,0.00,,,0.00,30,Wunderground v.1.15,2013-04-10 22:52:00,
2013-04-10 19:02:00,48.6,45.5,29.85,East,95,5.0,13.0,89,0.00,,,0.00,18,Wunderground v.1.15,2013-04-10 23:02:00,
2013-04-10 19:12:00,48.5,45.4,29.85,ESE,108,5.0,13.0,89,0.00,,,0.00,9,Wunderground v.1.15,2013-04-10 23:12:00,
2013-04-10 19:22:00,48.3,45.2,29.85,ENE,74,4.0,10.0,89,0.00,,,0.00,0,Wunderground v.1.15,2013-04-10 23:22:00,
2013-04-10 19:27:00,48.2,45.1,29.85,East,82,5.0,11.0,89,0.00,,,0.00,0,Wunderground v.1.15,2013-04-10 23:27:00,
2013-04-10 19:32:00,48.1,45.0,29.86,East,84,5.0,11.0,89,0.00,,,0.00,0,Wunderground v.1.15,2013-04-10 23:32:00,
2013-04-10 19:42:00,47.9,44.8,29.85,East,80,4.0,11.0,89,0.00,,,0.00,0,Wunderground v.1.15,2013-04-10 23:42:00,
2013-04-10 19:52:00,47.9,45.1,29.86,ENE,78,4.0,10.0,90,0.00,,,0.00,0,Wunderground v.1.15,2013-04-10 23:52:00,
2013-04-10 19:57:00,47.9,45.1,29.86,East,101,3.0,3.0,90,0.00,,,0.00,0,Wunderground v.1.15,2013-04-10 23:57:00,
2013-04-10 20:07:00,48.8,46.0,29.99,WNW,298,7.0,10.0,90,0.00,,,0.00,0,Wunderground v.1.15,2013-04-11 00:07:00,
2013-04-10 20:17:00,51.1,48.0,29.97,NW,307,8.0,8.0,89,0.12,,,0.02,0,Wunderground v.1.15,2013-04-11 00:17:00,
2013-04-10 20:22:00,51.7,48.6,29.93,ESE,108,5.0,30.0,89,0.06,,,0.02,0,Wunderground v.1.15,2013-04-11 00:22:00,
2013-04-10 20:32:00,51.6,48.5,29.89,East,82,6.0,30.0,89,0.05,,,0.03,0,Wunderground v.1.15,2013-04-11 00:32:00,
2013-04-10 20:42:00,51.4,48.3,29.88,SSE,153,4.0,30.0,89,0.00,,,0.03,0,Wunderground v.1.15,2013-04-11 00:42:00,
2013-04-10 20:52:00,51.2,48.1,29.85,East,96,7.0,30.0,89,0.00,,,0.03,0,Wunderground v.1.15,2013-04-11 00:52:00,
2013-04-10 21:02:00,50.9,47.8,29.84,ESE,117,6.0,9.0,89,0.00,,,0.04,0,Wunderground v.1.15,2013-04-11 01:02:00,
2013-04-10 21:12:00,50.5,47.7,29.81,ESE,104,10.0,15.0,90,0.20,,,0.06,0,Wunderground v.1.15,2013-04-11 01:12:00,
2013-04-10 21:22:00,50.3,47.5,29.84,ESE,114,8.0,17.0,90,0.05,,,0.06,0,Wunderground v.1.15,2013-04-11 01:22:00,
2013-04-10 21:32:00,50.1,47.3,29.85,SE,141,6.0,7.0,90,0.00,,,0.06,0,Wunderground v.1.15,2013-04-11 01:32:00,
2013-04-10 21:42:00,49.7,47.2,29.84,East,93,6.0,17.0,91,0.00,,,0.06,0,Wunderground v.1.15,2013-04-11 01:42:00,
2013-04-10 21:52:00,49.3,46.8,29.83,East,88,4.0,7.0,91,0.00,,,0.06,0,Wunderground v.1.15,2013-04-11 01:52:00,
2013-04-10 22:02:00,49.2,46.7,29.83,ESE,103,4.0,12.0,91,0.00,,,0.06,0,Wunderground v.1.15,2013-04-11 02:02:00,
2013-04-10 22:07:00,49.2,46.7,29.82,ESE,123,5.0,5.0,91,0.00,,,0.06,0,Wunderground v.1.15,2013-04-11 02:07:00,
2013-04-10 22:17:00,49.2,47.0,29.81,ESE,113,5.0,12.0,92,0.00,,,0.06,0,Wunderground v.1.15,2013-04-11 02:17:00,
2013-04-10 22:22:00,49.2,47.0,29.81,ESE,111,4.0,12.0,92,0.00,,,0.06,0,Wunderground v.1.15,2013-04-11 02:22:00,
2013-04-10 22:32:00,49.0,46.8,29.80,ESE,111,5.0,10.0,92,0.00,,,0.06,0,Wunderground v.1.15,2013-04-11 02:32:00,
2013-04-10 22:42:00,49.0,46.8,29.82,SSE,148,5.0,10.0,92,0.00,,,0.06,0,Wunderground v.1.15,2013-04-11 02:42:00,
2013-04-10 22:52:00,49.0,46.8,29.83,SE,132,4.0,10.0,92,0.00,,,0.06,0,Wunderground v.1.15,2013-04-11 02:52:00,
2013-04-10 22:57:00,48.9,46.7,29.83,South,177,4.0,10.0,92,0.00,,,0.06,0,Wunderground v.1.15,2013-04-11 02:57:00,
2013-04-10 23:07:00,49.0,46.8,29.83,South,175,4.0,4.0,92,0.00,,,0.06,0,Wunderground v.1.15,2013-04-11 03:07:00,
2013-04-10 23:17:00,49.6,47.4,29.87,West,277,4.0,10.0,92,0.00,,,0.06,0,Wunderground v.1.15,2013-04-11 03:17:00,
2013-04-10 23:22:00,50.0,47.8,29.89,WSW,246,6.0,13.0,92,0.00,,,0.06,0,Wunderground v.1.15,2013-04-11 03:22:00,
2013-04-10 23:32:00,50.9,48.9,29.91,West,264,8.0,13.0,93,0.00,,,0.06,0,Wunderground v.1.15,2013-04-11 03:32:00,
2013-04-10 23:37:00,51.4,49.4,29.90,WNW,293,7.0,7.0,93,0.00,,,0.07,0,Wunderground v.1.15,2013-04-11 03:37:00,
2013-04-10 23:47:00,51.8,49.8,29.87,West,279,2.0,2.0,93,0.00,,,0.07,0,Wunderground v.1.15,2013-04-11 03:47:00,
2013-04-10 23:57:00,51.7,49.7,29.86,West,279,1.0,15.0,93,0.00,,,0.08,0,Wunderground v.1.15,2013-04-11 03:57:00,